Ellendale, North Dakota
Current Conditions -  °F | °C
As of 10:53 PM on Wednesday 17 Dec 2014 (Local Time) from KABR Reporting Station
Overcast Overcast  
Wind Chill: 13°   Ceiling: 10000
Heat Index: 13°   Visibility: 10mi
Dew Point:   Wind: 3mph
Humidity: 84%   Direction: 150°SSE
Pressure: 30.26"   Gusts: NA
Location:  46°N, 98.53°W
Report Text: KABR 180453Z AUTO 15003KT 10SM OVC100 M11/M13 A3026 RMK AO2 SLP274 T11061128
Loading
Personal Weather Stations






























Interactive Weather Map New forecast layout! Learn more

10-Day Weather Forecast

Advertisements
Track Severe Weather on mobile